createdAt,value
2019-03-30T00:00:28.820Z,73.84
2019-03-30T00:05:25.498Z,73.79
2019-03-30T00:10:22.054Z,72.99
2019-03-30T00:15:18.671Z,72.37
2019-03-30T00:20:15.425Z,72.76
2019-03-30T00:25:12.049Z,73.96
2019-03-30T00:30:10.775Z,75.08
2019-03-30T00:35:07.465Z,74.67
2019-03-30T00:40:04.039Z,73.56
2019-03-30T00:45:01.706Z,73.72
2019-03-30T00:49:58.249Z,76.25
2019-03-30T00:54:54.822Z,76.02
2019-03-30T00:59:51.463Z,75.78
2019-03-30T01:04:48.026Z,75.37
2019-03-30T01:09:44.747Z,75.61
2019-03-30T01:14:41.272Z,73.28
2019-03-30T01:19:37.857Z,74.27
2019-03-30T01:24:34.553Z,76.06
2019-03-30T01:29:31.121Z,76.78
2019-03-30T01:34:27.755Z,75.98
2019-03-30T01:39:24.324Z,75.35
2019-03-30T01:44:22.207Z,76.80
2019-03-30T01:49:18.907Z,76.99
2019-03-30T01:54:15.477Z,77.23
2019-03-30T01:59:12.002Z,78.99
2019-03-30T02:04:08.678Z,79.56
2019-03-30T02:09:06.781Z,77.83
2019-03-30T02:14:03.354Z,78.86
2019-03-30T02:19:00.011Z,79.62
2019-03-30T02:23:56.728Z,79.79
2019-03-30T02:28:53.376Z,79.67
2019-03-30T02:33:49.946Z,79.94
2019-03-30T02:38:46.561Z,79.57
2019-03-30T02:43:43.169Z,80.54
2019-03-30T02:48:39.716Z,80.78
2019-03-30T02:53:36.266Z,80.08
2019-03-30T02:58:32.903Z,79.40
2019-03-30T03:03:29.601Z,78.93
2019-03-30T03:08:26.190Z,80.83
2019-03-30T03:13:22.771Z,81.98
2019-03-30T03:18:19.370Z,81.24
2019-03-30T03:23:15.903Z,80.46
2019-03-30T03:28:12.561Z,81.45
2019-03-30T03:33:09.725Z,83.10
2019-03-30T03:38:07.409Z,81.77
2019-03-30T03:43:04.036Z,80.65
2019-03-30T03:48:00.642Z,80.93
2019-03-30T03:52:57.386Z,81.27
2019-03-30T03:57:54.668Z,81.18
2019-03-30T04:02:52.959Z,82.88
2019-03-30T04:07:52.602Z,82.62
2019-03-30T04:12:51.073Z,83.55
2019-03-30T04:17:47.669Z,83.73
2019-03-30T04:22:44.315Z,81.23
2019-03-30T04:27:40.935Z,81.77
2019-03-30T04:32:37.612Z,82.74
2019-03-30T04:37:34.232Z,82.58
2019-03-30T04:42:30.810Z,81.61
2019-03-30T04:47:27.466Z,83.36
2019-03-30T04:52:23.992Z,84.49
2019-03-30T04:57:20.650Z,83.16
2019-03-30T05:02:17.254Z,84.38
2019-03-30T05:07:15.264Z,85.55
2019-03-30T05:12:11.864Z,85.46
2019-03-30T05:17:08.517Z,84.10
2019-03-30T05:22:11.932Z,84.60
2019-03-30T05:27:04.042Z,84.43
2019-03-30T05:32:00.736Z,85.07
2019-03-30T05:36:57.388Z,85.31
2019-03-30T05:42:16.217Z,84.88
2019-03-30T05:47:50.788Z,85.90
2019-03-30T05:53:00.932Z,84.97
2019-03-30T05:57:57.793Z,85.85
2019-03-30T06:03:32.843Z,84.18
2019-03-30T06:08:29.826Z,84.33
2019-03-30T06:13:30.513Z,86.57
2019-03-30T06:18:27.513Z,85.57
2019-03-30T06:23:27.601Z,85.75
2019-03-30T06:28:24.660Z,85.00
2019-03-30T06:33:30.921Z,84.10
2019-03-30T06:38:37.064Z,84.65
2019-03-30T06:43:37.208Z,84.82
2019-03-30T06:48:38.143Z,84.55
2019-03-30T06:53:40.094Z,83.60
2019-03-30T06:58:40.007Z,83.74
2019-03-30T07:03:47.032Z,82.99
2019-03-30T07:08:56.513Z,83.42
2019-03-30T07:13:58.211Z,84.23
2019-03-30T07:19:04.386Z,83.09
2019-03-30T07:24:01.407Z,82.30
2019-03-30T07:28:59.546Z,81.18
2019-03-30T07:33:56.987Z,81.23
2019-03-30T07:58:28.396Z,75.67
2019-03-30T10:07:27.028Z,52.77
2019-03-30T10:12:23.960Z,49.88
2019-03-30T10:17:24.270Z,52.25
2019-03-30T10:22:21.159Z,51.06
2019-03-30T10:27:17.958Z,50.94
2019-03-30T10:32:14.804Z,49.61
2019-03-30T10:37:14.139Z,49.90
2019-03-30T10:42:15.357Z,49.80
2019-03-30T10:47:16.825Z,51.85
2019-03-30T10:52:15.259Z,52.10
2019-03-30T10:57:12.099Z,51.40
2019-03-30T11:02:11.033Z,52.19
2019-03-30T11:07:10.005Z,53.67
2019-03-30T11:12:12.034Z,52.45
2019-03-30T11:17:14.587Z,53.51
2019-03-30T11:22:29.504Z,53.55
2019-03-30T11:27:26.239Z,52.50
2019-03-30T11:32:22.882Z,52.52
2019-03-30T11:37:19.546Z,52.95
2019-03-30T11:42:16.359Z,52.37
2019-03-30T11:47:12.989Z,51.75
2019-03-30T11:52:09.756Z,45.28
2019-03-30T11:57:06.349Z,48.70
2019-03-30T12:02:03.041Z,46.07
2019-03-30T12:06:59.656Z,48.03
2019-03-30T12:11:56.274Z,47.88
2019-03-30T12:16:52.975Z,49.20
2019-03-30T12:21:49.643Z,46.59
2019-03-30T12:26:46.275Z,48.12
2019-03-30T12:31:42.906Z,46.25
2019-03-30T12:36:39.749Z,47.22
2019-03-30T12:41:37.220Z,43.12
2019-03-30T12:46:34.032Z,45.70
2019-03-30T12:51:30.766Z,43.76
2019-03-30T12:56:27.608Z,41.38
2019-03-30T13:01:24.258Z,44.01
2019-03-30T13:06:20.954Z,42.81
2019-03-30T13:11:17.566Z,41.08
2019-03-30T13:16:14.245Z,41.58
2019-03-30T13:21:10.909Z,43.66
2019-03-30T13:26:07.700Z,38.49
2019-03-30T13:31:04.390Z,39.75
2019-03-30T13:36:01.043Z,40.06
2019-03-30T13:40:57.714Z,38.92
2019-03-30T13:45:54.317Z,40.42
2019-03-30T13:50:51.016Z,39.41
2019-03-30T13:55:47.651Z,38.59
2019-03-30T14:00:44.647Z,38.33
2019-03-30T14:05:41.663Z,36.96
2019-03-30T14:10:39.086Z,38.03
2019-03-30T14:15:36.215Z,41.58
2019-03-30T14:20:35.317Z,40.14
2019-03-30T14:25:32.050Z,41.07
2019-03-30T14:30:28.628Z,40.90
2019-03-30T14:35:25.293Z,39.40
2019-03-30T14:40:21.913Z,41.80
2019-03-30T14:45:18.577Z,40.39
2019-03-30T14:50:15.564Z,40.93
2019-03-30T14:55:13.460Z,36.72
2019-03-30T15:00:11.616Z,34.87
2019-03-30T15:05:12.207Z,33.93
2019-03-30T15:10:10.419Z,32.78
2019-03-30T15:15:08.126Z,33.50
2019-03-30T15:20:04.935Z,29.64
2019-03-30T15:25:01.693Z,32.42
2019-03-30T15:29:58.380Z,34.70
2019-03-30T15:34:58.263Z,32.80
2019-03-30T15:39:53.479Z,34.93
2019-03-30T15:44:50.335Z,33.85
2019-03-30T15:49:47.264Z,31.35
2019-03-30T15:54:43.875Z,31.34
2019-03-30T15:59:40.578Z,27.81
2019-03-30T16:04:37.509Z,27.15
2019-03-30T16:09:36.110Z,26.50
2019-03-30T16:14:34.145Z,24.52
2019-03-30T16:19:30.873Z,28.58
2019-03-30T16:24:30.105Z,28.24
2019-03-30T16:29:26.031Z,29.74
2019-03-30T16:34:22.743Z,26.72
2019-03-30T16:39:19.519Z,23.95
2019-03-30T16:44:16.303Z,25.36
2019-03-30T16:49:12.975Z,28.68
2019-03-30T16:54:09.948Z,29.16
2019-03-30T16:59:07.113Z,30.29
2019-03-30T17:04:03.880Z,28.84
2019-03-30T17:09:00.645Z,26.50
2019-03-30T17:13:57.538Z,28.17
2019-03-30T17:18:54.284Z,29.57
2019-03-30T17:23:51.181Z,32.31
2019-03-30T17:28:47.869Z,33.97
2019-03-30T17:33:44.546Z,35.16
2019-03-30T17:38:41.229Z,36.60
2019-03-30T17:43:38.028Z,38.31
2019-03-30T17:48:35.949Z,40.33
2019-03-30T17:53:32.639Z,42.33
2019-03-30T17:58:29.450Z,44.75
2019-03-30T18:03:26.190Z,45.06
2019-03-30T18:08:22.909Z,46.52
2019-03-30T18:13:19.637Z,47.30
2019-03-30T18:18:16.339Z,46.80
2019-03-30T18:23:15.830Z,47.03
2019-03-30T18:28:27.671Z,45.86
2019-03-30T18:33:29.863Z,47.72
2019-03-30T18:38:39.963Z,45.32
2019-03-30T18:43:47.026Z,45.37
2019-03-30T18:48:59.229Z,45.35
2019-03-30T18:54:00.136Z,45.03
2019-03-30T18:59:00.617Z,46.29
2019-03-30T19:03:56.279Z,46.82
2019-03-30T19:09:27.111Z,48.98
2019-03-30T19:15:06.476Z,49.17
2019-03-30T19:20:14.613Z,48.34
2019-03-30T19:25:33.875Z,47.32
2019-03-30T19:36:29.996Z,49.02
2019-03-30T19:41:51.157Z,50.72
2019-03-30T19:47:22.607Z,49.08
2019-03-30T19:52:40.060Z,48.96
2019-03-30T19:57:55.450Z,50.68
2019-03-30T20:03:02.273Z,51.79
2019-03-30T20:08:40.292Z,52.41
2019-03-30T20:13:55.270Z,52.10
2019-03-30T20:19:12.430Z,51.56
2019-03-30T20:24:24.334Z,51.91
2019-03-30T20:29:39.753Z,50.17
2019-03-30T20:34:45.835Z,50.34
2019-03-30T20:39:55.852Z,53.18
2019-03-30T20:45:04.155Z,54.20
2019-03-30T20:50:51.802Z,52.88
2019-03-30T20:56:08.767Z,54.10
2019-03-30T21:01:15.730Z,53.29
2019-03-30T21:20:17.143Z,54.29
2019-03-30T21:31:18.202Z,56.20
2019-03-30T21:36:40.980Z,55.57
2019-03-30T21:41:48.023Z,57.18
2019-03-30T21:46:55.063Z,55.29
2019-03-30T21:52:27.063Z,57.85
2019-03-30T21:57:16.852Z,57.70
2019-03-30T22:02:30.295Z,57.71
2019-03-30T22:08:08.437Z,59.21
2019-03-30T22:13:25.378Z,59.33
2019-03-30T22:18:45.334Z,59.05
2019-03-30T22:23:57.493Z,58.46
2019-03-30T22:29:07.854Z,57.02
2019-03-30T22:34:15.205Z,57.64
2019-03-30T22:39:28.546Z,60.60
2019-03-30T22:45:15.319Z,60.19
2019-03-30T22:50:30.240Z,60.93
2019-03-30T22:55:34.071Z,59.08
2019-03-30T23:00:51.648Z,60.92
2019-03-30T23:05:50.995Z,61.50
2019-03-30T23:11:00.595Z,60.26
2019-03-30T23:16:07.944Z,61.12
2019-03-30T23:21:16.058Z,59.67
2019-03-30T23:26:13.792Z,61.13
2019-03-30T23:31:10.396Z,60.74
2019-03-30T23:36:07.016Z,62.48
2019-03-30T23:41:03.716Z,60.05
2019-03-30T23:46:00.352Z,61.27
2019-03-30T23:50:56.988Z,60.80
2019-03-30T23:55:53.602Z,62.13
